Weather at Minaq Air Base

Public forecast

Using degrees Celsius for public forecast. Weather courtesy of forecast.io.

Closest aviation weather report (METAR) to Minaq Air Base

Report is more than 2 hours old.

Closest report is Aleppo International Airport, 22.3 nm (41.3 km) SSE.

2024/07/18 15:00 (retrieved 3 hours ago)

OSAP 181500Z 30018KT CAVOK 38/17 Q1003

Closest aviation forecast (TAF) to Minaq Air Base

Forecast is more than 6 hours old.

Closest forecast is Aleppo International Airport, 22.3 nm (41.3 km) SSE.

2024/07/18 06:00 (retrieved 12 hours ago)

TAF OSAP 180400Z 1806/1906 31008KT CAVOK TEMPO 1817/1821 27015KT